sensor_id;sensor_type;location;lat;lon;timestamp;P1;durP1;ratioP1;P2;durP2;ratioP2
20525;SDS011;10421;49.142;9.232;2023-04-24T00:02:08;0.87;;;0.70;;
20525;SDS011;10421;49.142;9.232;2023-04-24T00:04:35;1.67;;;1.00;;
20525;SDS011;10421;49.142;9.232;2023-04-24T00:07:06;1.90;;;1.27;;
20525;SDS011;10421;49.142;9.232;2023-04-24T00:09:33;1.97;;;1.43;;
20525;SDS011;10421;49.142;9.232;2023-04-24T00:12:00;2.50;;;1.10;;
20525;SDS011;10421;49.142;9.232;2023-04-24T00:14:28;2.93;;;1.70;;
20525;SDS011;10421;49.142;9.232;2023-04-24T00:16:55;3.33;;;1.53;;
20525;SDS011;10421;49.142;9.232;2023-04-24T00:19:22;3.23;;;1.27;;
20525;SDS011;10421;49.142;9.232;2023-04-24T00:21:48;1.60;;;1.50;;
20525;SDS011;10421;49.142;9.232;2023-04-24T00:24:17;3.30;;;1.80;;
20525;SDS011;10421;49.142;9.232;2023-04-24T00:26:44;2.10;;;1.10;;
20525;SDS011;10421;49.142;9.232;2023-04-24T00:29:10;1.97;;;1.57;;
20525;SDS011;10421;49.142;9.232;2023-04-24T00:31:37;3.37;;;1.87;;
20525;SDS011;10421;49.142;9.232;2023-04-24T00:34:04;1.27;;;0.90;;
20525;SDS011;10421;49.142;9.232;2023-04-24T00:36:31;1.57;;;1.33;;
20525;SDS011;10421;49.142;9.232;2023-04-24T00:38:58;2.17;;;1.80;;
20525;SDS011;10421;49.142;9.232;2023-04-24T00:41:26;2.53;;;1.30;;
20525;SDS011;10421;49.142;9.232;2023-04-24T00:43:53;2.50;;;1.13;;
20525;SDS011;10421;49.142;9.232;2023-04-24T00:46:19;3.03;;;1.27;;
20525;SDS011;10421;49.142;9.232;2023-04-24T00:48:47;1.47;;;1.37;;
20525;SDS011;10421;49.142;9.232;2023-04-24T00:51:14;3.20;;;1.70;;
20525;SDS011;10421;49.142;9.232;2023-04-24T00:53:40;2.33;;;1.63;;
20525;SDS011;10421;49.142;9.232;2023-04-24T00:56:07;1.17;;;1.00;;
20525;SDS011;10421;49.142;9.232;2023-04-24T00:58:35;2.33;;;1.00;;
20525;SDS011;10421;49.142;9.232;2023-04-24T01:01:02;1.13;;;1.03;;
20525;SDS011;10421;49.142;9.232;2023-04-24T01:03:32;1.90;;;1.00;;
20525;SDS011;10421;49.142;9.232;2023-04-24T01:05:59;2.07;;;1.30;;
20525;SDS011;10421;49.142;9.232;2023-04-24T01:08:26;1.57;;;1.47;;
20525;SDS011;10421;49.142;9.232;2023-04-24T01:10:54;1.43;;;1.30;;
20525;SDS011;10421;49.142;9.232;2023-04-24T01:13:23;1.80;;;1.43;;
20525;SDS011;10421;49.142;9.232;2023-04-24T01:15:51;2.10;;;1.10;;
20525;SDS011;10421;49.142;9.232;2023-04-24T01:18:18;3.07;;;1.47;;
20525;SDS011;10421;49.142;9.232;2023-04-24T01:20:46;1.20;;;1.10;;
20525;SDS011;10421;49.142;9.232;2023-04-24T01:23:15;2.20;;;1.53;;
20525;SDS011;10421;49.142;9.232;2023-04-24T01:25:42;1.10;;;1.00;;
20525;SDS011;10421;49.142;9.232;2023-04-24T01:28:10;1.90;;;0.97;;
20525;SDS011;10421;49.142;9.232;2023-04-24T01:30:39;1.43;;;1.20;;
20525;SDS011;10421;49.142;9.232;2023-04-24T01:33:05;6.03;;;1.73;;
20525;SDS011;10421;49.142;9.232;2023-04-24T01:35:32;1.20;;;1.10;;
20525;SDS011;10421;49.142;9.232;2023-04-24T01:38:01;1.23;;;1.07;;
20525;SDS011;10421;49.142;9.232;2023-04-24T01:40:29;1.87;;;1.67;;
20525;SDS011;10421;49.142;9.232;2023-04-24T01:42:56;2.50;;;1.17;;
20525;SDS011;10421;49.142;9.232;2023-04-24T01:45:24;0.87;;;0.87;;
20525;SDS011;10421;49.142;9.232;2023-04-24T01:47:50;1.83;;;1.37;;
20525;SDS011;10421;49.142;9.232;2023-04-24T01:50:18;2.10;;;1.43;;
20525;SDS011;10421;49.142;9.232;2023-04-24T01:52:44;3.53;;;1.73;;
20525;SDS011;10421;49.142;9.232;2023-04-24T01:55:11;2.17;;;1.70;;
20525;SDS011;10421;49.142;9.232;2023-04-24T01:57:39;1.30;;;1.03;;
20525;SDS011;10421;49.142;9.232;2023-04-24T02:00:06;2.50;;;1.37;;
20525;SDS011;10421;49.142;9.232;2023-04-24T02:02:36;1.73;;;0.97;;
20525;SDS011;10421;49.142;9.232;2023-04-24T02:05:05;1.97;;;0.87;;
20525;SDS011;10421;49.142;9.232;2023-04-24T02:07:32;2.37;;;1.10;;
20525;SDS011;10421;49.142;9.232;2023-04-24T02:09:59;1.43;;;1.10;;
20525;SDS011;10421;49.142;9.232;2023-04-24T02:12:26;1.47;;;1.27;;
20525;SDS011;10421;49.142;9.232;2023-04-24T02:14:54;1.53;;;1.10;;
20525;SDS011;10421;49.142;9.232;2023-04-24T02:17:20;1.57;;;1.20;;
20525;SDS011;10421;49.142;9.232;2023-04-24T02:19:47;1.57;;;1.10;;
20525;SDS011;10421;49.142;9.232;2023-04-24T02:22:14;2.73;;;1.07;;
20525;SDS011;10421;49.142;9.232;2023-04-24T02:24:41;3.30;;;1.00;;
20525;SDS011;10421;49.142;9.232;2023-04-24T02:27:08;1.93;;;1.63;;
20525;SDS011;10421;49.142;9.232;2023-04-24T02:29:34;1.03;;;0.93;;
20525;SDS011;10421;49.142;9.232;2023-04-24T02:32:02;0.83;;;0.70;;
20525;SDS011;10421;49.142;9.232;2023-04-24T02:34:29;1.43;;;1.20;;
20525;SDS011;10421;49.142;9.232;2023-04-24T02:36:56;3.63;;;1.30;;
20525;SDS011;10421;49.142;9.232;2023-04-24T02:39:23;1.03;;;0.80;;
20525;SDS011;10421;49.142;9.232;2023-04-24T02:41:50;4.60;;;0.83;;
20525;SDS011;10421;49.142;9.232;2023-04-24T02:44:16;1.40;;;1.10;;
20525;SDS011;10421;49.142;9.232;2023-04-24T02:46:43;1.60;;;1.20;;
20525;SDS011;10421;49.142;9.232;2023-04-24T02:49:11;1.37;;;0.70;;
20525;SDS011;10421;49.142;9.232;2023-04-24T02:51:38;3.23;;;1.00;;
20525;SDS011;10421;49.142;9.232;2023-04-24T02:54:06;3.73;;;1.20;;
20525;SDS011;10421;49.142;9.232;2023-04-24T02:56:33;1.67;;;1.17;;
20525;SDS011;10421;49.142;9.232;2023-04-24T02:59:00;1.53;;;0.83;;
20525;SDS011;10421;49.142;9.232;2023-04-24T03:01:26;4.70;;;0.93;;
20525;SDS011;10421;49.142;9.232;2023-04-24T03:03:53;1.27;;;0.70;;
20525;SDS011;10421;49.142;9.232;2023-04-24T03:06:21;1.60;;;1.40;;
20525;SDS011;10421;49.142;9.232;2023-04-24T03:08:48;1.87;;;1.63;;
20525;SDS011;10421;49.142;9.232;2023-04-24T03:11:14;1.70;;;1.50;;
20525;SDS011;10421;49.142;9.232;2023-04-24T03:13:41;1.30;;;0.93;;
20525;SDS011;10421;49.142;9.232;2023-04-24T03:16:08;2.33;;;1.83;;
20525;SDS011;10421;49.142;9.232;2023-04-24T03:18:35;1.33;;;1.00;;
20525;SDS011;10421;49.142;9.232;2023-04-24T03:21:01;2.20;;;1.27;;
20525;SDS011;10421;49.142;9.232;2023-04-24T03:23:30;0.70;;;0.70;;
20525;SDS011;10421;49.142;9.232;2023-04-24T03:25:56;3.33;;;1.47;;
20525;SDS011;10421;49.142;9.232;2023-04-24T03:28:23;1.70;;;0.93;;
20525;SDS011;10421;49.142;9.232;2023-04-24T03:30:50;1.27;;;0.90;;
20525;SDS011;10421;49.142;9.232;2023-04-24T03:33:17;2.60;;;1.10;;
20525;SDS011;10421;49.142;9.232;2023-04-24T03:35:43;1.57;;;0.73;;
20525;SDS011;10421;49.142;9.232;2023-04-24T03:38:10;1.63;;;0.80;;
20525;SDS011;10421;49.142;9.232;2023-04-24T03:40:38;1.10;;;1.00;;
20525;SDS011;10421;49.142;9.232;2023-04-24T03:43:05;2.30;;;1.10;;
20525;SDS011;10421;49.142;9.232;2023-04-24T03:45:32;2.63;;;1.70;;
20525;SDS011;10421;49.142;9.232;2023-04-24T03:47:58;3.23;;;1.20;;
20525;SDS011;10421;49.142;9.232;2023-04-24T03:50:25;1.57;;;1.27;;
20525;SDS011;10421;49.142;9.232;2023-04-24T03:52:54;1.37;;;1.10;;
20525;SDS011;10421;49.142;9.232;2023-04-24T03:55:20;2.07;;;1.03;;
20525;SDS011;10421;49.142;9.232;2023-04-24T03:57:48;1.00;;;0.90;;
20525;SDS011;10421;49.142;9.232;2023-04-24T04:00:15;2.70;;;1.70;;
20525;SDS011;10421;49.142;9.232;2023-04-24T04:02:43;2.00;;;0.90;;
20525;SDS011;10421;49.142;9.232;2023-04-24T04:05:10;1.73;;;0.90;;
20525;SDS011;10421;49.142;9.232;2023-04-24T04:07:37;1.67;;;1.10;;
20525;SDS011;10421;49.142;9.232;2023-04-24T04:10:04;1.90;;;0.87;;
20525;SDS011;10421;49.142;9.232;2023-04-24T04:12:32;2.43;;;1.27;;
20525;SDS011;10421;49.142;9.232;2023-04-24T04:15:00;1.73;;;1.07;;
20525;SDS011;10421;49.142;9.232;2023-04-24T04:17:26;0.83;;;0.60;;
20525;SDS011;10421;49.142;9.232;2023-04-24T04:19:54;1.50;;;1.20;;
20525;SDS011;10421;49.142;9.232;2023-04-24T04:22:21;1.67;;;1.03;;
20525;SDS011;10421;49.142;9.232;2023-04-24T04:24:48;1.23;;;1.00;;
20525;SDS011;10421;49.142;9.232;2023-04-24T04:27:16;2.80;;;1.70;;
20525;SDS011;10421;49.142;9.232;2023-04-24T04:29:43;4.40;;;0.97;;
20525;SDS011;10421;49.142;9.232;2023-04-24T04:32:11;2.00;;;1.67;;
20525;SDS011;10421;49.142;9.232;2023-04-24T04:34:38;1.30;;;1.20;;
20525;SDS011;10421;49.142;9.232;2023-04-24T04:37:04;1.87;;;1.40;;
20525;SDS011;10421;49.142;9.232;2023-04-24T04:39:31;2.00;;;1.70;;
20525;SDS011;10421;49.142;9.232;2023-04-24T04:41:58;1.63;;;1.30;;
20525;SDS011;10421;49.142;9.232;2023-04-24T04:44:25;2.50;;;1.90;;
20525;SDS011;10421;49.142;9.232;2023-04-24T04:46:53;2.37;;;1.47;;
20525;SDS011;10421;49.142;9.232;2023-04-24T04:49:22;1.33;;;1.23;;
20525;SDS011;10421;49.142;9.232;2023-04-24T04:51:49;2.33;;;1.90;;
20525;SDS011;10421;49.142;9.232;2023-04-24T04:54:17;1.77;;;1.67;;
20525;SDS011;10421;49.142;9.232;2023-04-24T04:56:43;2.30;;;1.67;;
20525;SDS011;10421;49.142;9.232;2023-04-24T04:59:10;2.50;;;1.93;;
20525;SDS011;10421;49.142;9.232;2023-04-24T05:01:37;2.23;;;1.93;;
20525;SDS011;10421;49.142;9.232;2023-04-24T05:04:04;3.33;;;2.13;;
20525;SDS011;10421;49.142;9.232;2023-04-24T05:06:32;3.77;;;1.83;;
20525;SDS011;10421;49.142;9.232;2023-04-24T05:08:59;2.30;;;2.10;;
20525;SDS011;10421;49.142;9.232;2023-04-24T05:11:26;2.23;;;1.90;;
20525;SDS011;10421;49.142;9.232;2023-04-24T05:13:52;2.70;;;1.83;;
20525;SDS011;10421;49.142;9.232;2023-04-24T05:16:19;2.40;;;2.20;;
20525;SDS011;10421;49.142;9.232;2023-04-24T05:18:46;5.30;;;3.83;;
20525;SDS011;10421;49.142;9.232;2023-04-24T05:21:13;3.23;;;2.57;;
20525;SDS011;10421;49.142;9.232;2023-04-24T05:23:41;5.30;;;2.77;;
20525;SDS011;10421;49.142;9.232;2023-04-24T05:26:08;4.10;;;2.90;;
20525;SDS011;10421;49.142;9.232;2023-04-24T05:28:34;4.17;;;3.07;;
20525;SDS011;10421;49.142;9.232;2023-04-24T05:31:01;2.20;;;2.00;;
20525;SDS011;10421;49.142;9.232;2023-04-24T05:33:29;2.47;;;2.23;;
20525;SDS011;10421;49.142;9.232;2023-04-24T05:35:56;3.60;;;2.67;;
20525;SDS011;10421;49.142;9.232;2023-04-24T05:38:22;5.07;;;4.00;;
20525;SDS011;10421;49.142;9.232;2023-04-24T05:40:51;2.77;;;2.27;;
20525;SDS011;10421;49.142;9.232;2023-04-24T05:43:17;2.93;;;2.43;;
20525;SDS011;10421;49.142;9.232;2023-04-24T05:45:44;2.37;;;2.17;;
20525;SDS011;10421;49.142;9.232;2023-04-24T05:48:11;3.63;;;2.87;;
20525;SDS011;10421;49.142;9.232;2023-04-24T05:50:38;2.57;;;2.30;;
20525;SDS011;10421;49.142;9.232;2023-04-24T05:53:04;2.97;;;2.33;;
20525;SDS011;10421;49.142;9.232;2023-04-24T05:55:32;4.73;;;3.40;;
20525;SDS011;10421;49.142;9.232;2023-04-24T05:58:01;4.00;;;3.23;;
20525;SDS011;10421;49.142;9.232;2023-04-24T06:00:27;3.80;;;2.40;;
20525;SDS011;10421;49.142;9.232;2023-04-24T06:02:54;3.23;;;2.43;;
20525;SDS011;10421;49.142;9.232;2023-04-24T06:05:21;4.50;;;2.93;;
20525;SDS011;10421;49.142;9.232;2023-04-24T06:07:48;3.53;;;2.10;;
20525;SDS011;10421;49.142;9.232;2023-04-24T06:10:15;2.83;;;2.33;;
20525;SDS011;10421;49.142;9.232;2023-04-24T06:12:41;3.80;;;2.03;;
20525;SDS011;10421;49.142;9.232;2023-04-24T06:15:10;5.33;;;3.27;;
20525;SDS011;10421;49.142;9.232;2023-04-24T06:17:37;4.40;;;3.37;;
20525;SDS011;10421;49.142;9.232;2023-04-24T06:20:04;5.10;;;3.70;;
20525;SDS011;10421;49.142;9.232;2023-04-24T06:22:33;4.37;;;2.77;;
20525;SDS011;10421;49.142;9.232;2023-04-24T06:25:00;3.27;;;2.47;;
20525;SDS011;10421;49.142;9.232;2023-04-24T06:27:27;3.60;;;2.10;;
20525;SDS011;10421;49.142;9.232;2023-04-24T06:29:54;4.33;;;3.03;;
20525;SDS011;10421;49.142;9.232;2023-04-24T06:32:22;4.43;;;3.00;;
20525;SDS011;10421;49.142;9.232;2023-04-24T06:34:50;2.60;;;2.40;;
20525;SDS011;10421;49.142;9.232;2023-04-24T06:37:17;6.50;;;3.50;;
20525;SDS011;10421;49.142;9.232;2023-04-24T06:39:45;6.03;;;3.30;;
20525;SDS011;10421;49.142;9.232;2023-04-24T06:42:12;3.40;;;2.80;;
20525;SDS011;10421;49.142;9.232;2023-04-24T06:44:38;2.60;;;2.40;;
20525;SDS011;10421;49.142;9.232;2023-04-24T06:47:06;4.37;;;2.90;;
20525;SDS011;10421;49.142;9.232;2023-04-24T06:49:35;3.73;;;2.87;;
20525;SDS011;10421;49.142;9.232;2023-04-24T06:52:01;3.10;;;2.17;;
20525;SDS011;10421;49.142;9.232;2023-04-24T06:54:28;3.33;;;3.00;;
20525;SDS011;10421;49.142;9.232;2023-04-24T06:56:55;4.80;;;1.97;;
20525;SDS011;10421;49.142;9.232;2023-04-24T06:59:22;2.70;;;2.27;;
20525;SDS011;10421;49.142;9.232;2023-04-24T07:01:49;3.57;;;2.23;;
20525;SDS011;10421;49.142;9.232;2023-04-24T07:04:16;3.80;;;3.13;;
20525;SDS011;10421;49.142;9.232;2023-04-24T07:06:45;3.07;;;2.60;;
20525;SDS011;10421;49.142;9.232;2023-04-24T07:09:12;4.20;;;2.27;;
20525;SDS011;10421;49.142;9.232;2023-04-24T07:11:41;3.40;;;3.10;;
20525;SDS011;10421;49.142;9.232;2023-04-24T07:14:08;3.00;;;2.10;;
20525;SDS011;10421;49.142;9.232;2023-04-24T07:16:35;3.00;;;2.80;;
20525;SDS011;10421;49.142;9.232;2023-04-24T07:19:01;3.07;;;2.40;;
20525;SDS011;10421;49.142;9.232;2023-04-24T07:21:28;4.30;;;3.13;;
20525;SDS011;10421;49.142;9.232;2023-04-24T07:23:57;2.97;;;1.90;;
20525;SDS011;10421;49.142;9.232;2023-04-24T07:26:24;4.57;;;2.37;;
20525;SDS011;10421;49.142;9.232;2023-04-24T07:28:51;6.23;;;2.23;;
20525;SDS011;10421;49.142;9.232;2023-04-24T07:31:18;5.93;;;2.97;;
20525;SDS011;10421;49.142;9.232;2023-04-24T07:33:46;5.57;;;2.90;;
20525;SDS011;10421;49.142;9.232;2023-04-24T07:36:12;2.83;;;2.27;;
20525;SDS011;10421;49.142;9.232;2023-04-24T07:38:44;4.90;;;2.37;;
20525;SDS011;10421;49.142;9.232;2023-04-24T07:41:12;2.33;;;2.13;;
20525;SDS011;10421;49.142;9.232;2023-04-24T07:43:39;2.70;;;1.73;;
20525;SDS011;10421;49.142;9.232;2023-04-24T07:46:06;4.50;;;2.37;;
20525;SDS011;10421;49.142;9.232;2023-04-24T07:48:35;2.13;;;2.03;;
20525;SDS011;10421;49.142;9.232;2023-04-24T07:51:02;2.77;;;1.63;;
20525;SDS011;10421;49.142;9.232;2023-04-24T07:53:29;2.80;;;1.87;;
20525;SDS011;10421;49.142;9.232;2023-04-24T07:55:56;2.50;;;1.90;;
20525;SDS011;10421;49.142;9.232;2023-04-24T07:58:24;2.67;;;2.07;;
20525;SDS011;10421;49.142;9.232;2023-04-24T08:00:51;2.77;;;2.17;;
20525;SDS011;10421;49.142;9.232;2023-04-24T08:03:18;2.60;;;1.73;;
20525;SDS011;10421;49.142;9.232;2023-04-24T08:05:45;2.20;;;2.00;;
20525;SDS011;10421;49.142;9.232;2023-04-24T08:08:12;1.87;;;1.70;;
20525;SDS011;10421;49.142;9.232;2023-04-24T08:10:39;1.93;;;1.53;;
20525;SDS011;10421;49.142;9.232;2023-04-24T08:13:06;2.40;;;1.70;;
20525;SDS011;10421;49.142;9.232;2023-04-24T08:15:34;3.13;;;2.23;;
20525;SDS011;10421;49.142;9.232;2023-04-24T08:18:01;2.53;;;2.00;;
20525;SDS011;10421;49.142;9.232;2023-04-24T08:20:27;2.27;;;1.73;;
20525;SDS011;10421;49.142;9.232;2023-04-24T08:22:55;2.20;;;1.70;;
20525;SDS011;10421;49.142;9.232;2023-04-24T08:25:22;1.40;;;1.33;;
20525;SDS011;10421;49.142;9.232;2023-04-24T08:27:49;2.50;;;1.60;;
20525;SDS011;10421;49.142;9.232;2023-04-24T08:30:16;2.03;;;1.90;;
20525;SDS011;10421;49.142;9.232;2023-04-24T08:32:44;1.83;;;1.30;;
20525;SDS011;10421;49.142;9.232;2023-04-24T08:35:11;2.67;;;2.30;;
20525;SDS011;10421;49.142;9.232;2023-04-24T08:37:38;1.80;;;1.67;;
20525;SDS011;10421;49.142;9.232;2023-04-24T08:40:06;3.10;;;1.77;;
20525;SDS011;10421;49.142;9.232;2023-04-24T08:42:37;1.77;;;1.47;;
20525;SDS011;10421;49.142;9.232;2023-04-24T08:45:05;1.97;;;1.77;;
20525;SDS011;10421;49.142;9.232;2023-04-24T08:47:33;3.03;;;2.00;;
20525;SDS011;10421;49.142;9.232;2023-04-24T08:50:03;4.53;;;1.93;;
20525;SDS011;10421;49.142;9.232;2023-04-24T08:52:31;2.30;;;1.73;;
20525;SDS011;10421;49.142;9.232;2023-04-24T08:54:59;3.53;;;2.10;;
20525;SDS011;10421;49.142;9.232;2023-04-24T08:57:26;1.47;;;1.27;;
20525;SDS011;10421;49.142;9.232;2023-04-24T08:59:54;1.43;;;1.33;;
20525;SDS011;10421;49.142;9.232;2023-04-24T09:02:22;1.77;;;1.50;;
20525;SDS011;10421;49.142;9.232;2023-04-24T09:04:49;3.10;;;1.60;;
20525;SDS011;10421;49.142;9.232;2023-04-24T09:07:18;4.30;;;1.60;;
20525;SDS011;10421;49.142;9.232;2023-04-24T09:09:45;2.17;;;1.97;;
20525;SDS011;10421;49.142;9.232;2023-04-24T09:12:14;2.30;;;2.10;;
20525;SDS011;10421;49.142;9.232;2023-04-24T09:14:40;1.60;;;1.50;;
20525;SDS011;10421;49.142;9.232;2023-04-24T09:17:10;1.87;;;1.33;;
20525;SDS011;10421;49.142;9.232;2023-04-24T09:19:36;1.90;;;1.60;;
20525;SDS011;10421;49.142;9.232;2023-04-24T09:22:04;2.27;;;1.60;;
20525;SDS011;10421;49.142;9.232;2023-04-24T09:24:33;1.50;;;1.40;;
20525;SDS011;10421;49.142;9.232;2023-04-24T09:27:00;2.03;;;1.30;;
20525;SDS011;10421;49.142;9.232;2023-04-24T09:29:27;1.40;;;1.30;;
20525;SDS011;10421;49.142;9.232;2023-04-24T09:31:54;1.67;;;1.57;;
20525;SDS011;10421;49.142;9.232;2023-04-24T09:34:22;1.70;;;1.60;;
20525;SDS011;10421;49.142;9.232;2023-04-24T09:36:49;1.23;;;1.23;;
20525;SDS011;10421;49.142;9.232;2023-04-24T09:39:17;1.70;;;1.07;;
20525;SDS011;10421;49.142;9.232;2023-04-24T09:41:47;2.40;;;2.20;;
20525;SDS011;10421;49.142;9.232;2023-04-24T09:44:15;2.07;;;1.97;;
20525;SDS011;10421;49.142;9.232;2023-04-24T09:46:43;1.33;;;1.17;;
20525;SDS011;10421;49.142;9.232;2023-04-24T09:49:12;1.87;;;1.77;;
20525;SDS011;10421;49.142;9.232;2023-04-24T09:51:41;1.33;;;1.23;;
20525;SDS011;10421;49.142;9.232;2023-04-24T09:54:13;3.77;;;1.60;;
20525;SDS011;10421;49.142;9.232;2023-04-24T09:56:42;1.53;;;1.43;;
20525;SDS011;10421;49.142;9.232;2023-04-24T09:59:11;1.63;;;1.53;;
20525;SDS011;10421;49.142;9.232;2023-04-24T10:01:38;1.63;;;1.53;;
20525;SDS011;10421;49.142;9.232;2023-04-24T10:04:14;1.63;;;1.20;;
20525;SDS011;10421;49.142;9.232;2023-04-24T10:06:42;1.77;;;1.30;;
20525;SDS011;10421;49.142;9.232;2023-04-24T10:09:09;1.47;;;1.37;;
20525;SDS011;10421;49.142;9.232;2023-04-24T10:11:37;1.93;;;1.83;;
20525;SDS011;10421;49.142;9.232;2023-04-24T10:14:06;2.73;;;2.13;;
20525;SDS011;10421;49.142;9.232;2023-04-24T10:16:37;2.43;;;1.70;;
20525;SDS011;10421;49.142;9.232;2023-04-24T10:19:04;2.70;;;2.50;;
20525;SDS011;10421;49.142;9.232;2023-04-24T10:21:31;2.70;;;2.20;;
20525;SDS011;10421;49.142;9.232;2023-04-24T10:23:58;2.50;;;2.10;;
20525;SDS011;10421;49.142;9.232;2023-04-24T10:26:28;2.03;;;1.83;;
20525;SDS011;10421;49.142;9.232;2023-04-24T10:28:56;2.60;;;2.40;;
20525;SDS011;10421;49.142;9.232;2023-04-24T10:31:24;3.90;;;2.60;;
20525;SDS011;10421;49.142;9.232;2023-04-24T10:33:53;2.63;;;2.40;;
20525;SDS011;10421;49.142;9.232;2023-04-24T10:36:21;2.23;;;2.03;;
20525;SDS011;10421;49.142;9.232;2023-04-24T10:38:51;2.90;;;2.53;;
20525;SDS011;10421;49.142;9.232;2023-04-24T10:41:20;3.00;;;2.50;;
20525;SDS011;10421;49.142;9.232;2023-04-24T10:43:48;3.47;;;2.67;;
20525;SDS011;10421;49.142;9.232;2023-04-24T10:46:29;5.30;;;2.50;;
20525;SDS011;10421;49.142;9.232;2023-04-24T10:48:58;2.97;;;2.77;;
20525;SDS011;10421;49.142;9.232;2023-04-24T10:51:42;3.67;;;3.30;;
20525;SDS011;10421;49.142;9.232;2023-04-24T10:54:21;3.77;;;3.03;;
20525;SDS011;10421;49.142;9.232;2023-04-24T10:56:49;3.03;;;2.67;;
20525;SDS011;10421;49.142;9.232;2023-04-24T10:59:23;3.10;;;2.50;;
20525;SDS011;10421;49.142;9.232;2023-04-24T11:01:52;3.03;;;2.70;;
20525;SDS011;10421;49.142;9.232;2023-04-24T11:04:30;6.03;;;3.33;;
20525;SDS011;10421;49.142;9.232;2023-04-24T11:06:57;6.23;;;3.03;;
20525;SDS011;10421;49.142;9.232;2023-04-24T11:09:26;2.70;;;2.37;;
20525;SDS011;10421;49.142;9.232;2023-04-24T11:12:02;3.17;;;2.87;;
20525;SDS011;10421;49.142;9.232;2023-04-24T11:14:31;3.70;;;2.90;;
20525;SDS011;10421;49.142;9.232;2023-04-24T11:17:29;4.37;;;2.50;;
20525;SDS011;10421;49.142;9.232;2023-04-24T11:20:01;3.07;;;2.77;;
20525;SDS011;10421;49.142;9.232;2023-04-24T11:22:29;2.13;;;1.93;;
20525;SDS011;10421;49.142;9.232;2023-04-24T11:25:00;2.80;;;2.60;;
20525;SDS011;10421;49.142;9.232;2023-04-24T11:27:29;3.00;;;2.23;;
20525;SDS011;10421;49.142;9.232;2023-04-24T11:30:00;2.70;;;2.30;;
20525;SDS011;10421;49.142;9.232;2023-04-24T11:32:28;2.33;;;2.13;;
20525;SDS011;10421;49.142;9.232;2023-04-24T11:34:57;3.97;;;2.83;;
20525;SDS011;10421;49.142;9.232;2023-04-24T11:37:27;3.20;;;2.90;;
20525;SDS011;10421;49.142;9.232;2023-04-24T11:39:59;3.70;;;3.13;;
20525;SDS011;10421;49.142;9.232;2023-04-24T11:42:25;2.80;;;2.50;;
20525;SDS011;10421;49.142;9.232;2023-04-24T11:44:53;4.00;;;3.30;;
20525;SDS011;10421;49.142;9.232;2023-04-24T11:47:27;3.67;;;2.93;;
20525;SDS011;10421;49.142;9.232;2023-04-24T11:49:54;3.13;;;2.60;;
20525;SDS011;10421;49.142;9.232;2023-04-24T11:52:21;4.70;;;2.80;;
20525;SDS011;10421;49.142;9.232;2023-04-24T11:54:50;3.73;;;3.37;;
20525;SDS011;10421;49.142;9.232;2023-04-24T11:57:18;3.27;;;2.77;;
20525;SDS011;10421;49.142;9.232;2023-04-24T11:59:46;5.10;;;3.03;;
20525;SDS011;10421;49.142;9.232;2023-04-24T12:02:20;5.47;;;3.70;;
20525;SDS011;10421;49.142;9.232;2023-04-24T12:04:50;6.20;;;3.10;;
20525;SDS011;10421;49.142;9.232;2023-04-24T12:07:17;5.90;;;2.80;;
20525;SDS011;10421;49.142;9.232;2023-04-24T12:09:45;2.70;;;2.50;;
20525;SDS011;10421;49.142;9.232;2023-04-24T12:12:16;3.37;;;2.53;;
20525;SDS011;10421;49.142;9.232;2023-04-24T12:14:52;2.23;;;2.03;;
20525;SDS011;10421;49.142;9.232;2023-04-24T12:17:24;5.57;;;2.83;;
20525;SDS011;10421;49.142;9.232;2023-04-24T12:19:51;2.83;;;2.60;;
20525;SDS011;10421;49.142;9.232;2023-04-24T12:22:18;3.53;;;2.70;;
20525;SDS011;10421;49.142;9.232;2023-04-24T12:24:58;3.20;;;2.60;;
20525;SDS011;10421;49.142;9.232;2023-04-24T12:27:28;3.37;;;2.90;;
20525;SDS011;10421;49.142;9.232;2023-04-24T12:29:56;3.50;;;2.80;;
20525;SDS011;10421;49.142;9.232;2023-04-24T12:32:23;4.50;;;3.40;;
20525;SDS011;10421;49.142;9.232;2023-04-24T12:34:51;2.80;;;2.60;;
20525;SDS011;10421;49.142;9.232;2023-04-24T12:37:18;4.50;;;3.40;;
20525;SDS011;10421;49.142;9.232;2023-04-24T12:39:57;3.83;;;3.33;;
20525;SDS011;10421;49.142;9.232;2023-04-24T12:42:25;3.93;;;3.20;;
20525;SDS011;10421;49.142;9.232;2023-04-24T12:44:56;3.20;;;2.90;;
20525;SDS011;10421;49.142;9.232;2023-04-24T12:47:24;4.60;;;3.47;;
20525;SDS011;10421;49.142;9.232;2023-04-24T12:49:51;5.10;;;3.53;;
20525;SDS011;10421;49.142;9.232;2023-04-24T12:52:18;3.93;;;3.33;;
20525;SDS011;10421;49.142;9.232;2023-04-24T12:54:45;4.17;;;3.80;;
20525;SDS011;10421;49.142;9.232;2023-04-24T12:57:12;3.90;;;3.50;;
20525;SDS011;10421;49.142;9.232;2023-04-24T12:59:40;4.87;;;3.50;;
20525;SDS011;10421;49.142;9.232;2023-04-24T13:02:07;5.73;;;4.17;;
20525;SDS011;10421;49.142;9.232;2023-04-24T13:04:35;3.70;;;3.20;;
20525;SDS011;10421;49.142;9.232;2023-04-24T13:07:01;4.30;;;3.80;;
20525;SDS011;10421;49.142;9.232;2023-04-24T13:09:28;6.10;;;3.80;;
20525;SDS011;10421;49.142;9.232;2023-04-24T13:11:55;5.87;;;3.83;;
20525;SDS011;10421;49.142;9.232;2023-04-24T13:14:22;3.60;;;3.30;;
20525;SDS011;10421;49.142;9.232;2023-04-24T13:16:50;4.40;;;3.07;;
20525;SDS011;10421;49.142;9.232;2023-04-24T13:19:17;3.27;;;2.97;;
20525;SDS011;10421;49.142;9.232;2023-04-24T13:21:44;4.47;;;3.83;;
20525;SDS011;10421;49.142;9.232;2023-04-24T13:24:11;3.80;;;3.37;;
20525;SDS011;10421;49.142;9.232;2023-04-24T13:26:38;3.87;;;3.20;;
20525;SDS011;10421;49.142;9.232;2023-04-24T13:29:04;3.60;;;3.30;;
20525;SDS011;10421;49.142;9.232;2023-04-24T13:31:31;3.80;;;3.10;;
20525;SDS011;10421;49.142;9.232;2023-04-24T13:33:59;7.53;;;4.10;;
20525;SDS011;10421;49.142;9.232;2023-04-24T13:36:26;3.63;;;2.93;;
20525;SDS011;10421;49.142;9.232;2023-04-24T13:38:52;3.50;;;3.20;;
20525;SDS011;10421;49.142;9.232;2023-04-24T13:41:19;3.47;;;3.17;;
20525;SDS011;10421;49.142;9.232;2023-04-24T13:43:46;5.37;;;2.93;;
20525;SDS011;10421;49.142;9.232;2023-04-24T13:46:13;6.00;;;3.20;;
20525;SDS011;10421;49.142;9.232;2023-04-24T13:48:39;3.80;;;2.77;;
20525;SDS011;10421;49.142;9.232;2023-04-24T13:51:07;3.57;;;3.27;;
20525;SDS011;10421;49.142;9.232;2023-04-24T13:53:34;3.47;;;3.17;;
20525;SDS011;10421;49.142;9.232;2023-04-24T13:56:03;3.90;;;3.30;;
20525;SDS011;10421;49.142;9.232;2023-04-24T13:58:30;5.50;;;3.53;;
20525;SDS011;10421;49.142;9.232;2023-04-24T14:00:57;3.70;;;3.10;;
20525;SDS011;10421;49.142;9.232;2023-04-24T14:03:24;6.10;;;4.70;;
20525;SDS011;10421;49.142;9.232;2023-04-24T14:05:51;5.43;;;4.00;;
20525;SDS011;10421;49.142;9.232;2023-04-24T14:08:24;4.50;;;3.37;;
20525;SDS011;10421;49.142;9.232;2023-04-24T14:10:51;4.40;;;4.00;;
20525;SDS011;10421;49.142;9.232;2023-04-24T14:13:18;4.63;;;3.87;;
20525;SDS011;10421;49.142;9.232;2023-04-24T14:15:44;4.97;;;3.53;;
20525;SDS011;10421;49.142;9.232;2023-04-24T14:18:11;3.73;;;3.07;;
20525;SDS011;10421;49.142;9.232;2023-04-24T14:20:38;3.43;;;3.13;;
20525;SDS011;10421;49.142;9.232;2023-04-24T14:23:05;5.40;;;3.03;;
20525;SDS011;10421;49.142;9.232;2023-04-24T14:25:33;3.30;;;2.80;;
20525;SDS011;10421;49.142;9.232;2023-04-24T14:28:00;3.47;;;2.90;;
20525;SDS011;10421;49.142;9.232;2023-04-24T14:30:27;3.90;;;2.93;;
20525;SDS011;10421;49.142;9.232;2023-04-24T14:32:53;3.20;;;2.80;;
20525;SDS011;10421;49.142;9.232;2023-04-24T14:35:20;4.20;;;3.40;;
20525;SDS011;10421;49.142;9.232;2023-04-24T14:37:47;3.80;;;3.00;;
20525;SDS011;10421;49.142;9.232;2023-04-24T14:40:14;3.47;;;3.07;;
20525;SDS011;10421;49.142;9.232;2023-04-24T14:42:43;3.50;;;2.97;;
20525;SDS011;10421;49.142;9.232;2023-04-24T14:45:10;4.63;;;3.60;;
20525;SDS011;10421;49.142;9.232;2023-04-24T14:47:37;4.40;;;3.10;;
20525;SDS011;10421;49.142;9.232;2023-04-24T14:50:04;3.37;;;3.07;;
20525;SDS011;10421;49.142;9.232;2023-04-24T14:52:32;5.57;;;4.00;;